sensor_id;sensor_type;location;lat;lon;timestamp;P1;durP1;ratioP1;P2;durP2;ratioP2
49488;SDS011;35382;51.484;11.476;2022-12-07T00:00:26;45.30;;;20.98;;
49488;SDS011;35382;51.484;11.476;2022-12-07T00:02:07;41.00;;;19.80;;
49488;SDS011;35382;51.484;11.476;2022-12-07T00:03:49;42.35;;;19.00;;
49488;SDS011;35382;51.484;11.476;2022-12-07T00:05:31;38.60;;;18.58;;
49488;SDS011;35382;51.484;11.476;2022-12-07T00:07:12;36.95;;;18.90;;
49488;SDS011;35382;51.484;11.476;2022-12-07T00:08:53;38.13;;;19.17;;
49488;SDS011;35382;51.484;11.476;2022-12-07T00:10:34;36.05;;;18.40;;
49488;SDS011;35382;51.484;11.476;2022-12-07T00:12:15;33.92;;;17.63;;
49488;SDS011;35382;51.484;11.476;2022-12-07T00:13:57;38.95;;;18.70;;
49488;SDS011;35382;51.484;11.476;2022-12-07T00:15:40;39.15;;;19.15;;
49488;SDS011;35382;51.484;11.476;2022-12-07T00:17:21;36.97;;;19.30;;
49488;SDS011;35382;51.484;11.476;2022-12-07T00:19:03;37.75;;;19.05;;
49488;SDS011;35382;51.484;11.476;2022-12-07T00:20:44;37.50;;;18.88;;
49488;SDS011;35382;51.484;11.476;2022-12-07T00:22:25;38.47;;;19.42;;
49488;SDS011;35382;51.484;11.476;2022-12-07T00:24:06;35.03;;;18.00;;
49488;SDS011;35382;51.484;11.476;2022-12-07T00:25:47;33.97;;;18.25;;
49488;SDS011;35382;51.484;11.476;2022-12-07T00:27:29;34.17;;;17.27;;
49488;SDS011;35382;51.484;11.476;2022-12-07T00:31:04;38.08;;;18.60;;
49488;SDS011;35382;51.484;11.476;2022-12-07T00:32:49;39.10;;;20.27;;
49488;SDS011;35382;51.484;11.476;2022-12-07T00:34:30;43.17;;;20.70;;
49488;SDS011;35382;51.484;11.476;2022-12-07T00:36:13;42.17;;;21.20;;
49488;SDS011;35382;51.484;11.476;2022-12-07T00:37:56;41.67;;;20.23;;
49488;SDS011;35382;51.484;11.476;2022-12-07T00:39:37;42.72;;;20.35;;
49488;SDS011;35382;51.484;11.476;2022-12-07T00:41:21;44.85;;;21.35;;
49488;SDS011;35382;51.484;11.476;2022-12-07T00:43:04;47.95;;;22.20;;
49488;SDS011;35382;51.484;11.476;2022-12-07T00:44:45;41.33;;;20.42;;
49488;SDS011;35382;51.484;11.476;2022-12-07T00:46:26;46.15;;;21.02;;
49488;SDS011;35382;51.484;11.476;2022-12-07T00:48:07;46.13;;;21.05;;
49488;SDS011;35382;51.484;11.476;2022-12-07T00:49:48;46.47;;;21.02;;
49488;SDS011;35382;51.484;11.476;2022-12-07T00:51:29;46.67;;;20.70;;
49488;SDS011;35382;51.484;11.476;2022-12-07T00:53:10;45.75;;;21.67;;
49488;SDS011;35382;51.484;11.476;2022-12-07T00:54:51;48.95;;;21.35;;
49488;SDS011;35382;51.484;11.476;2022-12-07T00:56:32;46.88;;;22.02;;
49488;SDS011;35382;51.484;11.476;2022-12-07T00:58:13;45.50;;;20.52;;
49488;SDS011;35382;51.484;11.476;2022-12-07T00:59:54;45.55;;;20.35;;
49488;SDS011;35382;51.484;11.476;2022-12-07T01:01:38;38.85;;;18.63;;
49488;SDS011;35382;51.484;11.476;2022-12-07T01:03:19;42.50;;;19.08;;
49488;SDS011;35382;51.484;11.476;2022-12-07T01:05:00;45.53;;;21.17;;
49488;SDS011;35382;51.484;11.476;2022-12-07T01:06:41;47.00;;;19.73;;
49488;SDS011;35382;51.484;11.476;2022-12-07T01:08:22;40.78;;;19.73;;
49488;SDS011;35382;51.484;11.476;2022-12-07T01:10:04;43.67;;;19.23;;
49488;SDS011;35382;51.484;11.476;2022-12-07T01:11:45;45.53;;;20.35;;
49488;SDS011;35382;51.484;11.476;2022-12-07T01:13:27;43.38;;;20.52;;
49488;SDS011;35382;51.484;11.476;2022-12-07T01:15:08;42.83;;;20.42;;
49488;SDS011;35382;51.484;11.476;2022-12-07T01:16:50;44.13;;;21.27;;
49488;SDS011;35382;51.484;11.476;2022-12-07T01:18:32;41.95;;;19.73;;
49488;SDS011;35382;51.484;11.476;2022-12-07T01:20:14;42.00;;;20.27;;
49488;SDS011;35382;51.484;11.476;2022-12-07T01:21:56;41.40;;;18.35;;
49488;SDS011;35382;51.484;11.476;2022-12-07T01:23:37;40.67;;;18.60;;
49488;SDS011;35382;51.484;11.476;2022-12-07T01:25:18;42.20;;;18.20;;
49488;SDS011;35382;51.484;11.476;2022-12-07T01:26:59;42.03;;;20.00;;
49488;SDS011;35382;51.484;11.476;2022-12-07T01:28:40;38.22;;;18.13;;
49488;SDS011;35382;51.484;11.476;2022-12-07T01:30:21;35.15;;;18.05;;
49488;SDS011;35382;51.484;11.476;2022-12-07T01:32:02;40.90;;;18.08;;
49488;SDS011;35382;51.484;11.476;2022-12-07T01:33:45;41.45;;;19.65;;
49488;SDS011;35382;51.484;11.476;2022-12-07T01:35:28;36.85;;;17.92;;
49488;SDS011;35382;51.484;11.476;2022-12-07T01:37:09;38.20;;;17.77;;
49488;SDS011;35382;51.484;11.476;2022-12-07T01:38:51;36.63;;;17.90;;
49488;SDS011;35382;51.484;11.476;2022-12-07T01:40:36;40.45;;;19.27;;
49488;SDS011;35382;51.484;11.476;2022-12-07T01:42:18;35.95;;;18.65;;
49488;SDS011;35382;51.484;11.476;2022-12-07T01:44:19;43.30;;;18.73;;
49488;SDS011;35382;51.484;11.476;2022-12-07T01:46:04;41.53;;;18.55;;
49488;SDS011;35382;51.484;11.476;2022-12-07T01:47:50;41.42;;;17.48;;
49488;SDS011;35382;51.484;11.476;2022-12-07T01:49:40;35.08;;;17.67;;
49488;SDS011;35382;51.484;11.476;2022-12-07T01:51:26;38.85;;;18.35;;
49488;SDS011;35382;51.484;11.476;2022-12-07T01:53:08;35.35;;;16.83;;
49488;SDS011;35382;51.484;11.476;2022-12-07T01:54:52;36.40;;;16.85;;
49488;SDS011;35382;51.484;11.476;2022-12-07T01:56:36;41.38;;;18.25;;
49488;SDS011;35382;51.484;11.476;2022-12-07T01:58:19;40.15;;;18.83;;
49488;SDS011;35382;51.484;11.476;2022-12-07T02:00:01;42.75;;;19.05;;
49488;SDS011;35382;51.484;11.476;2022-12-07T02:01:53;37.63;;;18.67;;
49488;SDS011;35382;51.484;11.476;2022-12-07T02:03:37;38.83;;;17.90;;
49488;SDS011;35382;51.484;11.476;2022-12-07T02:05:20;36.55;;;18.02;;
49488;SDS011;35382;51.484;11.476;2022-12-07T02:07:03;41.13;;;17.95;;
49488;SDS011;35382;51.484;11.476;2022-12-07T02:08:45;36.67;;;17.48;;
49488;SDS011;35382;51.484;11.476;2022-12-07T02:10:28;37.42;;;18.58;;
49488;SDS011;35382;51.484;11.476;2022-12-07T02:12:11;36.45;;;16.70;;
49488;SDS011;35382;51.484;11.476;2022-12-07T02:13:52;38.63;;;18.75;;
49488;SDS011;35382;51.484;11.476;2022-12-07T02:16:09;34.88;;;16.73;;
49488;SDS011;35382;51.484;11.476;2022-12-07T02:18:29;35.22;;;17.42;;
49488;SDS011;35382;51.484;11.476;2022-12-07T02:20:11;39.85;;;17.92;;
49488;SDS011;35382;51.484;11.476;2022-12-07T02:22:11;35.33;;;17.45;;
49488;SDS011;35382;51.484;11.476;2022-12-07T02:29:50;37.67;;;17.02;;
49488;SDS011;35382;51.484;11.476;2022-12-07T02:31:44;32.15;;;15.75;;
49488;SDS011;35382;51.484;11.476;2022-12-07T02:33:33;33.70;;;15.82;;
49488;SDS011;35382;51.484;11.476;2022-12-07T02:35:19;34.50;;;15.43;;
49488;SDS011;35382;51.484;11.476;2022-12-07T02:37:07;33.47;;;15.13;;
49488;SDS011;35382;51.484;11.476;2022-12-07T02:38:55;31.77;;;15.23;;
49488;SDS011;35382;51.484;11.476;2022-12-07T02:40:40;33.63;;;16.85;;
49488;SDS011;35382;51.484;11.476;2022-12-07T02:42:27;37.47;;;16.83;;
49488;SDS011;35382;51.484;11.476;2022-12-07T02:44:15;37.95;;;16.55;;
49488;SDS011;35382;51.484;11.476;2022-12-07T02:46:01;33.20;;;16.00;;
49488;SDS011;35382;51.484;11.476;2022-12-07T02:47:56;36.70;;;16.80;;
49488;SDS011;35382;51.484;11.476;2022-12-07T02:49:39;33.20;;;15.77;;
49488;SDS011;35382;51.484;11.476;2022-12-07T02:51:21;36.67;;;16.35;;
49488;SDS011;35382;51.484;11.476;2022-12-07T02:53:02;35.42;;;16.00;;
49488;SDS011;35382;51.484;11.476;2022-12-07T02:54:43;39.30;;;18.05;;
49488;SDS011;35382;51.484;11.476;2022-12-07T02:56:27;35.78;;;16.70;;
49488;SDS011;35382;51.484;11.476;2022-12-07T02:58:34;33.50;;;16.05;;
49488;SDS011;35382;51.484;11.476;2022-12-07T03:00:26;37.25;;;16.20;;
49488;SDS011;35382;51.484;11.476;2022-12-07T03:03:56;33.40;;;15.20;;
49488;SDS011;35382;51.484;11.476;2022-12-07T03:08:07;31.63;;;15.57;;
49488;SDS011;35382;51.484;11.476;2022-12-07T03:12:35;34.05;;;14.30;;
49488;SDS011;35382;51.484;11.476;2022-12-07T03:14:25;31.77;;;14.25;;
49488;SDS011;35382;51.484;11.476;2022-12-07T03:16:20;33.25;;;15.18;;
49488;SDS011;35382;51.484;11.476;2022-12-07T03:18:21;34.33;;;15.38;;
49488;SDS011;35382;51.484;11.476;2022-12-07T03:20:05;32.42;;;15.48;;
49488;SDS011;35382;51.484;11.476;2022-12-07T03:21:57;31.17;;;14.80;;
49488;SDS011;35382;51.484;11.476;2022-12-07T03:23:42;34.58;;;14.35;;
49488;SDS011;35382;51.484;11.476;2022-12-07T03:25:27;32.80;;;15.38;;
49488;SDS011;35382;51.484;11.476;2022-12-07T03:27:13;33.20;;;15.75;;
49488;SDS011;35382;51.484;11.476;2022-12-07T03:28:59;35.92;;;15.70;;
49488;SDS011;35382;51.484;11.476;2022-12-07T03:30:52;30.85;;;15.23;;
49488;SDS011;35382;51.484;11.476;2022-12-07T03:33:13;36.13;;;16.40;;
49488;SDS011;35382;51.484;11.476;2022-12-07T03:34:56;31.85;;;15.40;;
49488;SDS011;35382;51.484;11.476;2022-12-07T03:36:40;31.95;;;16.05;;
49488;SDS011;35382;51.484;11.476;2022-12-07T03:38:32;32.67;;;15.40;;
49488;SDS011;35382;51.484;11.476;2022-12-07T03:42:17;36.22;;;16.58;;
49488;SDS011;35382;51.484;11.476;2022-12-07T03:43:58;37.78;;;16.92;;
49488;SDS011;35382;51.484;11.476;2022-12-07T03:47:29;35.75;;;15.77;;
49488;SDS011;35382;51.484;11.476;2022-12-07T03:53:12;35.78;;;15.68;;
49488;SDS011;35382;51.484;11.476;2022-12-07T03:56:42;36.70;;;15.75;;
49488;SDS011;35382;51.484;11.476;2022-12-07T03:58:25;32.65;;;16.20;;
49488;SDS011;35382;51.484;11.476;2022-12-07T04:00:07;35.92;;;16.85;;
49488;SDS011;35382;51.484;11.476;2022-12-07T04:01:57;33.42;;;15.95;;
49488;SDS011;35382;51.484;11.476;2022-12-07T04:03:42;37.72;;;17.67;;
49488;SDS011;35382;51.484;11.476;2022-12-07T04:05:23;35.00;;;16.50;;
49488;SDS011;35382;51.484;11.476;2022-12-07T04:07:05;37.42;;;16.88;;
49488;SDS011;35382;51.484;11.476;2022-12-07T04:08:46;39.22;;;17.98;;
49488;SDS011;35382;51.484;11.476;2022-12-07T04:10:27;42.63;;;18.73;;
49488;SDS011;35382;51.484;11.476;2022-12-07T04:12:07;40.03;;;18.67;;
49488;SDS011;35382;51.484;11.476;2022-12-07T04:13:48;38.97;;;18.17;;
49488;SDS011;35382;51.484;11.476;2022-12-07T04:15:48;37.33;;;17.98;;
49488;SDS011;35382;51.484;11.476;2022-12-07T04:17:29;45.22;;;19.50;;
49488;SDS011;35382;51.484;11.476;2022-12-07T04:19:10;39.42;;;18.40;;
49488;SDS011;35382;51.484;11.476;2022-12-07T04:20:51;42.28;;;18.80;;
49488;SDS011;35382;51.484;11.476;2022-12-07T04:22:32;42.35;;;19.80;;
49488;SDS011;35382;51.484;11.476;2022-12-07T04:24:13;38.38;;;18.45;;
49488;SDS011;35382;51.484;11.476;2022-12-07T04:25:55;44.42;;;18.33;;
49488;SDS011;35382;51.484;11.476;2022-12-07T04:27:36;38.15;;;17.15;;
49488;SDS011;35382;51.484;11.476;2022-12-07T04:29:17;37.58;;;16.92;;
49488;SDS011;35382;51.484;11.476;2022-12-07T04:30:59;38.20;;;17.17;;
49488;SDS011;35382;51.484;11.476;2022-12-07T04:32:40;37.72;;;18.17;;
49488;SDS011;35382;51.484;11.476;2022-12-07T04:34:21;41.28;;;18.75;;
49488;SDS011;35382;51.484;11.476;2022-12-07T04:36:02;43.25;;;19.10;;
49488;SDS011;35382;51.484;11.476;2022-12-07T04:37:43;45.15;;;19.30;;
49488;SDS011;35382;51.484;11.476;2022-12-07T04:39:25;43.63;;;19.77;;
49488;SDS011;35382;51.484;11.476;2022-12-07T04:41:10;49.28;;;19.90;;
49488;SDS011;35382;51.484;11.476;2022-12-07T04:42:51;45.65;;;20.35;;
49488;SDS011;35382;51.484;11.476;2022-12-07T04:44:32;46.88;;;20.77;;
49488;SDS011;35382;51.484;11.476;2022-12-07T04:46:13;44.10;;;20.38;;
49488;SDS011;35382;51.484;11.476;2022-12-07T04:47:54;50.80;;;21.73;;
49488;SDS011;35382;51.484;11.476;2022-12-07T04:49:35;46.28;;;19.45;;
49488;SDS011;35382;51.484;11.476;2022-12-07T04:51:18;48.60;;;20.27;;
49488;SDS011;35382;51.484;11.476;2022-12-07T04:53:00;49.65;;;19.75;;
49488;SDS011;35382;51.484;11.476;2022-12-07T04:54:41;43.60;;;19.80;;
49488;SDS011;35382;51.484;11.476;2022-12-07T04:56:22;43.60;;;19.85;;
49488;SDS011;35382;51.484;11.476;2022-12-07T04:58:04;44.47;;;19.27;;
49488;SDS011;35382;51.484;11.476;2022-12-07T04:59:45;38.47;;;17.17;;
49488;SDS011;35382;51.484;11.476;2022-12-07T05:01:26;41.67;;;19.50;;
49488;SDS011;35382;51.484;11.476;2022-12-07T05:03:07;40.55;;;19.15;;
49488;SDS011;35382;51.484;11.476;2022-12-07T05:04:48;38.55;;;18.30;;
49488;SDS011;35382;51.484;11.476;2022-12-07T05:06:28;38.25;;;17.65;;
49488;SDS011;35382;51.484;11.476;2022-12-07T05:08:09;33.72;;;16.95;;
49488;SDS011;35382;51.484;11.476;2022-12-07T05:09:50;34.28;;;17.00;;
49488;SDS011;35382;51.484;11.476;2022-12-07T05:11:31;30.88;;;15.13;;
49488;SDS011;35382;51.484;11.476;2022-12-07T05:13:18;31.40;;;16.17;;
49488;SDS011;35382;51.484;11.476;2022-12-07T05:14:59;29.73;;;14.25;;
49488;SDS011;35382;51.484;11.476;2022-12-07T05:16:40;31.05;;;14.63;;
49488;SDS011;35382;51.484;11.476;2022-12-07T05:18:22;27.38;;;14.35;;
49488;SDS011;35382;51.484;11.476;2022-12-07T05:20:04;25.35;;;13.57;;
49488;SDS011;35382;51.484;11.476;2022-12-07T05:21:45;26.55;;;14.82;;
49488;SDS011;35382;51.484;11.476;2022-12-07T05:23:26;24.38;;;12.13;;
49488;SDS011;35382;51.484;11.476;2022-12-07T05:25:07;25.13;;;13.85;;
49488;SDS011;35382;51.484;11.476;2022-12-07T05:26:49;23.25;;;12.13;;
49488;SDS011;35382;51.484;11.476;2022-12-07T05:28:30;27.42;;;13.55;;
49488;SDS011;35382;51.484;11.476;2022-12-07T05:30:11;23.77;;;12.00;;
49488;SDS011;35382;51.484;11.476;2022-12-07T05:31:52;27.55;;;13.70;;
49488;SDS011;35382;51.484;11.476;2022-12-07T05:33:33;24.40;;;13.50;;
49488;SDS011;35382;51.484;11.476;2022-12-07T05:35:14;24.38;;;12.73;;
49488;SDS011;35382;51.484;11.476;2022-12-07T05:36:55;24.88;;;12.80;;
49488;SDS011;35382;51.484;11.476;2022-12-07T05:38:36;24.92;;;12.70;;
49488;SDS011;35382;51.484;11.476;2022-12-07T05:40:17;29.90;;;14.43;;
49488;SDS011;35382;51.484;11.476;2022-12-07T05:41:59;28.90;;;14.40;;
49488;SDS011;35382;51.484;11.476;2022-12-07T05:43:52;27.60;;;14.15;;
49488;SDS011;35382;51.484;11.476;2022-12-07T05:45:33;29.33;;;14.90;;
49488;SDS011;35382;51.484;11.476;2022-12-07T05:47:14;30.67;;;15.07;;
49488;SDS011;35382;51.484;11.476;2022-12-07T05:48:56;30.70;;;15.70;;
49488;SDS011;35382;51.484;11.476;2022-12-07T05:50:37;36.55;;;15.57;;
49488;SDS011;35382;51.484;11.476;2022-12-07T05:52:18;36.53;;;16.85;;
49488;SDS011;35382;51.484;11.476;2022-12-07T05:53:59;37.63;;;18.00;;
49488;SDS011;35382;51.484;11.476;2022-12-07T05:55:40;41.22;;;18.35;;
49488;SDS011;35382;51.484;11.476;2022-12-07T05:57:21;40.00;;;17.55;;
49488;SDS011;35382;51.484;11.476;2022-12-07T05:59:01;39.67;;;19.25;;
49488;SDS011;35382;51.484;11.476;2022-12-07T06:01:01;39.55;;;18.15;;
49488;SDS011;35382;51.484;11.476;2022-12-07T06:02:42;44.42;;;19.92;;
49488;SDS011;35382;51.484;11.476;2022-12-07T06:04:23;40.92;;;19.92;;
49488;SDS011;35382;51.484;11.476;2022-12-07T06:06:05;43.75;;;18.20;;
49488;SDS011;35382;51.484;11.476;2022-12-07T06:07:46;45.90;;;19.08;;
49488;SDS011;35382;51.484;11.476;2022-12-07T06:09:27;44.67;;;19.98;;
49488;SDS011;35382;51.484;11.476;2022-12-07T06:11:09;41.17;;;17.98;;
49488;SDS011;35382;51.484;11.476;2022-12-07T06:13:08;46.28;;;19.67;;
49488;SDS011;35382;51.484;11.476;2022-12-07T06:14:49;47.13;;;20.80;;
49488;SDS011;35382;51.484;11.476;2022-12-07T06:16:30;42.28;;;19.30;;
49488;SDS011;35382;51.484;11.476;2022-12-07T06:18:11;44.42;;;19.40;;
49488;SDS011;35382;51.484;11.476;2022-12-07T06:19:52;44.72;;;19.27;;
49488;SDS011;35382;51.484;11.476;2022-12-07T06:21:33;40.85;;;18.38;;
49488;SDS011;35382;51.484;11.476;2022-12-07T06:23:14;40.40;;;18.67;;
49488;SDS011;35382;51.484;11.476;2022-12-07T06:24:55;43.00;;;20.30;;
49488;SDS011;35382;51.484;11.476;2022-12-07T06:26:36;44.17;;;20.40;;
49488;SDS011;35382;51.484;11.476;2022-12-07T06:28:17;45.33;;;19.73;;
49488;SDS011;35382;51.484;11.476;2022-12-07T06:29:58;44.65;;;19.40;;
49488;SDS011;35382;51.484;11.476;2022-12-07T06:31:39;44.80;;;20.88;;
49488;SDS011;35382;51.484;11.476;2022-12-07T06:33:20;45.72;;;21.63;;
49488;SDS011;35382;51.484;11.476;2022-12-07T06:35:01;42.25;;;20.27;;
49488;SDS011;35382;51.484;11.476;2022-12-07T06:36:42;51.65;;;22.35;;
49488;SDS011;35382;51.484;11.476;2022-12-07T06:38:24;46.95;;;21.38;;
49488;SDS011;35382;51.484;11.476;2022-12-07T06:40:05;44.97;;;20.23;;
49488;SDS011;35382;51.484;11.476;2022-12-07T06:41:46;50.58;;;21.90;;
49488;SDS011;35382;51.484;11.476;2022-12-07T06:43:28;45.33;;;21.02;;
49488;SDS011;35382;51.484;11.476;2022-12-07T06:45:09;46.20;;;20.65;;
49488;SDS011;35382;51.484;11.476;2022-12-07T06:46:50;43.97;;;19.92;;
49488;SDS011;35382;51.484;11.476;2022-12-07T06:48:32;44.78;;;20.73;;
49488;SDS011;35382;51.484;11.476;2022-12-07T06:50:13;43.15;;;19.83;;
49488;SDS011;35382;51.484;11.476;2022-12-07T06:51:54;44.58;;;19.55;;
49488;SDS011;35382;51.484;11.476;2022-12-07T06:53:35;40.72;;;19.38;;
49488;SDS011;35382;51.484;11.476;2022-12-07T06:55:16;44.47;;;19.83;;
49488;SDS011;35382;51.484;11.476;2022-12-07T06:56:57;43.13;;;19.42;;
49488;SDS011;35382;51.484;11.476;2022-12-07T06:58:38;43.20;;;20.50;;
49488;SDS011;35382;51.484;11.476;2022-12-07T07:00:20;39.88;;;18.25;;
49488;SDS011;35382;51.484;11.476;2022-12-07T07:02:01;40.65;;;20.73;;
49488;SDS011;35382;51.484;11.476;2022-12-07T07:03:42;39.13;;;18.73;;
49488;SDS011;35382;51.484;11.476;2022-12-07T07:05:23;42.13;;;18.77;;
49488;SDS011;35382;51.484;11.476;2022-12-07T07:07:04;41.63;;;19.50;;
49488;SDS011;35382;51.484;11.476;2022-12-07T07:08:45;39.78;;;19.30;;
49488;SDS011;35382;51.484;11.476;2022-12-07T07:10:26;43.42;;;19.85;;
49488;SDS011;35382;51.484;11.476;2022-12-07T07:12:07;43.28;;;20.20;;
49488;SDS011;35382;51.484;11.476;2022-12-07T07:13:48;44.35;;;20.75;;
49488;SDS011;35382;51.484;11.476;2022-12-07T07:15:29;42.38;;;19.40;;
49488;SDS011;35382;51.484;11.476;2022-12-07T07:17:10;43.97;;;21.90;;
49488;SDS011;35382;51.484;11.476;2022-12-07T07:18:51;42.65;;;20.60;;
49488;SDS011;35382;51.484;11.476;2022-12-07T07:20:32;36.08;;;18.70;;
49488;SDS011;35382;51.484;11.476;2022-12-07T07:22:13;41.95;;;19.65;;
49488;SDS011;35382;51.484;11.476;2022-12-07T07:23:54;41.42;;;20.65;;
49488;SDS011;35382;51.484;11.476;2022-12-07T07:25:35;39.97;;;19.40;;
49488;SDS011;35382;51.484;11.476;2022-12-07T07:27:16;45.78;;;19.98;;
49488;SDS011;35382;51.484;11.476;2022-12-07T07:28:57;39.75;;;18.70;;
49488;SDS011;35382;51.484;11.476;2022-12-07T07:30:38;43.08;;;19.55;;
49488;SDS011;35382;51.484;11.476;2022-12-07T07:32:19;43.55;;;20.25;;
49488;SDS011;35382;51.484;11.476;2022-12-07T07:33:59;44.42;;;20.27;;
49488;SDS011;35382;51.484;11.476;2022-12-07T07:35:40;46.70;;;20.67;;
49488;SDS011;35382;51.484;11.476;2022-12-07T07:37:22;43.63;;;19.08;;
49488;SDS011;35382;51.484;11.476;2022-12-07T07:39:03;46.20;;;21.45;;
49488;SDS011;35382;51.484;11.476;2022-12-07T07:40:45;42.00;;;20.23;;
49488;SDS011;35382;51.484;11.476;2022-12-07T07:42:26;47.70;;;21.55;;
49488;SDS011;35382;51.484;11.476;2022-12-07T07:44:07;43.67;;;20.98;;
49488;SDS011;35382;51.484;11.476;2022-12-07T07:45:48;45.53;;;20.42;;
49488;SDS011;35382;51.484;11.476;2022-12-07T07:47:29;46.90;;;21.83;;
49488;SDS011;35382;51.484;11.476;2022-12-07T07:49:10;47.83;;;20.75;;
49488;SDS011;35382;51.484;11.476;2022-12-07T07:50:51;51.05;;;21.40;;
49488;SDS011;35382;51.484;11.476;2022-12-07T07:52:32;48.88;;;20.90;;
49488;SDS011;35382;51.484;11.476;2022-12-07T07:54:13;47.50;;;22.05;;
49488;SDS011;35382;51.484;11.476;2022-12-07T07:55:54;53.70;;;22.27;;
49488;SDS011;35382;51.484;11.476;2022-12-07T07:57:35;58.78;;;23.83;;
49488;SDS011;35382;51.484;11.476;2022-12-07T07:59:17;56.13;;;24.33;;
49488;SDS011;35382;51.484;11.476;2022-12-07T08:01:03;54.97;;;24.25;;
49488;SDS011;35382;51.484;11.476;2022-12-07T08:02:45;48.08;;;22.20;;
49488;SDS011;35382;51.484;11.476;2022-12-07T08:04:26;51.42;;;22.77;;
49488;SDS011;35382;51.484;11.476;2022-12-07T08:06:07;46.13;;;22.05;;
49488;SDS011;35382;51.484;11.476;2022-12-07T08:07:48;48.25;;;21.60;;
49488;SDS011;35382;51.484;11.476;2022-12-07T08:09:29;43.67;;;20.17;;
49488;SDS011;35382;51.484;11.476;2022-12-07T08:11:10;41.38;;;18.80;;
49488;SDS011;35382;51.484;11.476;2022-12-07T08:12:51;41.65;;;19.88;;
49488;SDS011;35382;51.484;11.476;2022-12-07T08:14:51;37.05;;;17.55;;
49488;SDS011;35382;51.484;11.476;2022-12-07T08:16:32;34.45;;;16.60;;
49488;SDS011;35382;51.484;11.476;2022-12-07T08:18:13;38.10;;;17.15;;
49488;SDS011;35382;51.484;11.476;2022-12-07T08:19:54;35.50;;;15.98;;
49488;SDS011;35382;51.484;11.476;2022-12-07T08:21:35;38.92;;;17.13;;
49488;SDS011;35382;51.484;11.476;2022-12-07T08:23:17;31.65;;;16.35;;
49488;SDS011;35382;51.484;11.476;2022-12-07T08:24:58;33.05;;;16.63;;
49488;SDS011;35382;51.484;11.476;2022-12-07T08:26:39;37.03;;;17.45;;
49488;SDS011;35382;51.484;11.476;2022-12-07T08:28:21;33.88;;;15.80;;
49488;SDS011;35382;51.484;11.476;2022-12-07T08:30:02;34.05;;;15.93;;
49488;SDS011;35382;51.484;11.476;2022-12-07T08:31:43;33.83;;;15.80;;
49488;SDS011;35382;51.484;11.476;2022-12-07T08:33:24;42.38;;;17.83;;
49488;SDS011;35382;51.484;11.476;2022-12-07T08:35:05;37.80;;;17.30;;
49488;SDS011;35382;51.484;11.476;2022-12-07T08:36:47;32.05;;;15.73;;
49488;SDS011;35382;51.484;11.476;2022-12-07T08:38:27;32.25;;;15.35;;
49488;SDS011;35382;51.484;11.476;2022-12-07T08:40:09;34.22;;;15.45;;
49488;SDS011;35382;51.484;11.476;2022-12-07T08:41:52;34.53;;;16.02;;
49488;SDS011;35382;51.484;11.476;2022-12-07T08:43:33;38.38;;;16.88;;
49488;SDS011;35382;51.484;11.476;2022-12-07T08:45:15;33.97;;;16.52;;
49488;SDS011;35382;51.484;11.476;2022-12-07T08:46:58;36.97;;;15.93;;
49488;SDS011;35382;51.484;11.476;2022-12-07T08:48:45;29.80;;;14.93;;
49488;SDS011;35382;51.484;11.476;2022-12-07T08:50:31;33.20;;;15.90;;
49488;SDS011;35382;51.484;11.476;2022-12-07T08:52:13;34.80;;;15.90;;
49488;SDS011;35382;51.484;11.476;2022-12-07T08:53:54;32.33;;;15.18;;
49488;SDS011;35382;51.484;11.476;2022-12-07T08:55:36;29.05;;;14.93;;
49488;SDS011;35382;51.484;11.476;2022-12-07T08:57:17;31.90;;;14.63;;
49488;SDS011;35382;51.484;11.476;2022-12-07T08:58:58;29.77;;;14.25;;
49488;SDS011;35382;51.484;11.476;2022-12-07T09:00:39;28.33;;;14.13;;
49488;SDS011;35382;51.484;11.476;2022-12-07T09:02:20;27.23;;;13.40;;
49488;SDS011;35382;51.484;11.476;2022-12-07T09:04:01;28.02;;;14.18;;
49488;SDS011;35382;51.484;11.476;2022-12-07T09:05:42;28.95;;;13.70;;
49488;SDS011;35382;51.484;11.476;2022-12-07T09:07:23;30.58;;;14.13;;
49488;SDS011;35382;51.484;11.476;2022-12-07T09:09:05;29.45;;;14.77;;
49488;SDS011;35382;51.484;11.476;2022-12-07T09:10:47;28.52;;;13.48;;
49488;SDS011;35382;51.484;11.476;2022-12-07T09:12:28;26.17;;;12.77;;
49488;SDS011;35382;51.484;11.476;2022-12-07T09:14:09;28.13;;;14.35;;
49488;SDS011;35382;51.484;11.476;2022-12-07T09:15:50;31.92;;;14.20;;
49488;SDS011;35382;51.484;11.476;2022-12-07T09:17:34;27.95;;;13.98;;
49488;SDS011;35382;51.484;11.476;2022-12-07T09:19:16;29.45;;;13.82;;
49488;SDS011;35382;51.484;11.476;2022-12-07T09:20:57;27.20;;;14.13;;
49488;SDS011;35382;51.484;11.476;2022-12-07T09:22:38;28.80;;;13.80;;
49488;SDS011;35382;51.484;11.476;2022-12-07T09:24:19;34.25;;;13.55;;
49488;SDS011;35382;51.484;11.476;2022-12-07T09:26:00;35.05;;;14.20;;
49488;SDS011;35382;51.484;11.476;2022-12-07T09:27:45;28.50;;;14.63;;
49488;SDS011;35382;51.484;11.476;2022-12-07T09:29:26;28.77;;;16.10;;
49488;SDS011;35382;51.484;11.476;2022-12-07T09:31:07;28.27;;;13.55;;
49488;SDS011;35382;51.484;11.476;2022-12-07T09:32:48;28.23;;;13.52;;
49488;SDS011;35382;51.484;11.476;2022-12-07T09:34:31;28.42;;;14.45;;
49488;SDS011;35382;51.484;11.476;2022-12-07T09:36:12;30.63;;;14.30;;
49488;SDS011;35382;51.484;11.476;2022-12-07T09:37:53;27.85;;;14.75;;
49488;SDS011;35382;51.484;11.476;2022-12-07T09:39:34;28.00;;;14.32;;
49488;SDS011;35382;51.484;11.476;2022-12-07T09:41:18;39.28;;;16.00;;
49488;SDS011;35382;51.484;11.476;2022-12-07T09:43:00;30.15;;;15.38;;
49488;SDS011;35382;51.484;11.476;2022-12-07T09:44:41;34.72;;;15.75;;
49488;SDS011;35382;51.484;11.476;2022-12-07T09:46:22;29.65;;;15.50;;
49488;SDS011;35382;51.484;11.476;2022-12-07T09:48:03;31.20;;;15.13;;
49488;SDS011;35382;51.484;11.476;2022-12-07T09:49:45;29.75;;;14.38;;
49488;SDS011;35382;51.484;11.476;2022-12-07T09:51:25;32.95;;;15.48;;
49488;SDS011;35382;51.484;11.476;2022-12-07T09:55:38;31.75;;;14.65;;
49488;SDS011;35382;51.484;11.476;2022-12-07T09:57:29;32.08;;;14.27;;
49488;SDS011;35382;51.484;11.476;2022-12-07T09:59:15;26.30;;;12.38;;
49488;SDS011;35382;51.484;11.476;2022-12-07T10:01:00;24.70;;;12.45;;
49488;SDS011;35382;51.484;11.476;2022-12-07T10:04:38;25.48;;;12.15;;
49488;SDS011;35382;51.484;11.476;2022-12-07T10:06:27;25.98;;;11.45;;
49488;SDS011;35382;51.484;11.476;2022-12-07T10:08:10;20.83;;;10.60;;
49488;SDS011;35382;51.484;11.476;2022-12-07T10:09:52;24.98;;;11.68;;
49488;SDS011;35382;51.484;11.476;2022-12-07T10:11:33;22.38;;;10.55;;
49488;SDS011;35382;51.484;11.476;2022-12-07T10:13:17;18.58;;;9.25;;
49488;SDS011;35382;51.484;11.476;2022-12-07T10:15:14;18.20;;;9.15;;
49488;SDS011;35382;51.484;11.476;2022-12-07T10:16:55;18.52;;;8.93;;
49488;SDS011;35382;51.484;11.476;2022-12-07T10:18:38;15.18;;;7.20;;
49488;SDS011;35382;51.484;11.476;2022-12-07T10:22:15;16.95;;;8.10;;
49488;SDS011;35382;51.484;11.476;2022-12-07T10:25:55;14.32;;;7.47;;